Time;durP1;ratioP1;P1;durP2;ratioP2;P2;SDS_P1;SDS_P2;PMS_P1;PMS_P2;Temp;Humidity;BMP_temperature;BMP_pressure;BME280_temperature;BME280_humidity;BME280_pressure;Samples;Min_cycle;Max_cycle;Signal;HPM_P1;HPM_P2
2022/03/21 00:02:14;;;;;;;41.65;33.85;;;;;;;2.20;83.85;102855.25;5284156;28;20024;-69
2022/03/21 00:04:45;;;;;;;47.80;37.13;;;;;;;2.17;85.69;102857.88;5283443;28;20036;-68
2022/03/21 00:07:17;;;;;;;41.70;33.90;;;;;;;2.18;84.78;102863.00;5282885;28;20152;-69
2022/03/21 00:09:49;;;;;;;48.22;37.53;;;;;;;2.15;85.53;102862.19;5281616;28;20020;-69
2022/03/21 00:12:21;;;;;;;49.58;36.95;;;;;;;2.19;85.95;102856.94;5281604;28;20021;-69
2022/03/21 00:14:53;;;;;;;45.42;36.20;;;;;;;2.16;84.83;102857.03;5283433;28;20114;-69
2022/03/21 00:17:25;;;;;;;46.25;35.83;;;;;;;2.11;85.35;102858.81;5285542;28;20087;-69
2022/03/21 00:19:56;;;;;;;43.85;34.58;;;;;;;2.10;83.86;102864.03;5284568;28;20377;-69
2022/03/21 00:22:28;;;;;;;46.08;35.53;;;;;;;2.05;83.78;102861.53;5283916;28;20425;-69
2022/03/21 00:24:59;;;;;;;44.83;36.05;;;;;;;2.05;83.62;102858.94;5283954;28;20021;-69
2022/03/21 00:27:30;;;;;;;43.72;34.17;;;;;;;2.00;83.78;102867.63;5284057;28;20016;-68
2022/03/21 00:30:03;;;;;;;45.70;36.05;;;;;;;2.01;84.53;102872.78;5285727;28;20200;-71
2022/03/21 00:32:35;;;;;;;45.05;35.25;;;;;;;1.97;83.49;102863.38;5282893;28;20548;-70
2022/03/21 00:35:08;;;;;;;43.10;34.70;;;;;;;1.98;84.17;102870.25;5285935;28;20035;-70
2022/03/21 00:37:40;;;;;;;47.80;36.55;;;;;;;1.93;83.76;102877.22;5282306;28;20038;-70
2022/03/21 00:40:14;;;;;;;44.60;35.10;;;;;;;1.83;84.73;102868.75;5284570;28;20012;-71
2022/03/21 00:42:48;;;;;;;41.92;34.53;;;;;;;1.86;84.22;102880.78;5283807;28;20037;-68
2022/03/21 00:45:25;;;;;;;48.13;35.33;;;;;;;1.80;83.23;102871.38;5287052;28;20051;-70
2022/03/21 00:47:56;;;;;;;43.55;33.70;;;;;;;1.73;84.19;102874.09;5286676;28;20118;-68
2022/03/21 00:50:27;;;;;;;42.65;34.20;;;;;;;1.67;84.36;102870.75;5285630;28;20020;-71
2022/03/21 00:52:59;;;;;;;46.58;33.13;;;;;;;1.65;83.89;102876.78;5288516;28;20012;-69
2022/03/21 00:55:30;;;;;;;46.50;34.30;;;;;;;1.65;85.61;102876.78;5284764;28;20040;-70
2022/03/21 00:58:02;;;;;;;42.70;32.97;;;;;;;1.62;84.78;102877.69;5284511;28;20020;-71
2022/03/21 01:00:33;;;;;;;41.97;32.70;;;;;;;1.61;84.08;102883.72;5285490;28;20031;-71
2022/03/21 01:03:05;;;;;;;42.60;34.05;;;;;;;1.60;84.22;102882.03;5280659;28;20028;-71
2022/03/21 01:05:37;;;;;;;45.15;34.20;;;;;;;1.54;83.29;102874.38;5284860;28;20457;-69
2022/03/21 01:08:08;;;;;;;41.58;33.58;;;;;;;1.50;84.93;102889.94;5285166;28;20028;-71
2022/03/21 01:10:39;;;;;;;43.05;34.50;;;;;;;1.49;84.29;102886.50;5284295;28;20037;-70
2022/03/21 01:13:11;;;;;;;43.95;32.80;;;;;;;1.52;84.14;102886.47;5285608;28;20020;-71
2022/03/21 01:15:42;;;;;;;43.65;33.55;;;;;;;1.49;83.71;102890.81;5285457;28;20021;-71
2022/03/21 01:18:13;;;;;;;42.88;33.17;;;;;;;1.44;82.91;102878.81;5282088;28;20059;-71
2022/03/21 01:20:45;;;;;;;42.72;33.22;;;;;;;1.39;84.01;102879.75;5285803;28;20051;-69
2022/03/21 01:23:16;;;;;;;42.75;32.72;;;;;;;1.43;84.27;102887.41;5284000;28;20039;-70
2022/03/21 01:25:48;;;;;;;43.10;34.22;;;;;;;1.38;84.28;102885.78;5286160;28;20031;-70
2022/03/21 01:28:19;;;;;;;45.25;35.40;;;;;;;1.40;85.84;102892.66;5284761;28;20024;-70
2022/03/21 01:30:50;;;;;;;48.15;36.10;;;;;;;1.33;90.12;102885.00;5286017;28;20032;-71
2022/03/21 01:33:22;;;;;;;42.72;35.00;;;;;;;1.33;88.84;102885.00;5285883;28;20036;-69
2022/03/21 01:35:53;;;;;;;47.13;36.40;;;;;;;1.35;88.66;102889.25;5284984;28;20047;-71
2022/03/21 01:38:24;;;;;;;43.65;35.13;;;;;;;1.31;88.55;102890.19;5283286;28;20036;-70
2022/03/21 01:40:55;;;;;;;47.17;35.67;;;;;;;1.32;87.92;102889.28;5285421;28;20038;-68
2022/03/21 01:43:27;;;;;;;45.65;36.53;;;;;;;1.28;89.74;102894.53;5283439;28;20025;-71
2022/03/21 01:45:58;;;;;;;45.38;35.83;;;;;;;1.22;89.27;102895.47;5283485;28;20036;-70
2022/03/21 01:48:30;;;;;;;42.92;34.00;;;;;;;1.23;88.68;102896.31;5283704;28;20032;-71
2022/03/21 01:51:01;;;;;;;46.90;36.00;;;;;;;1.24;89.24;102890.28;5283209;28;20024;-71
2022/03/21 01:56:23;;;;;;;46.65;35.55;;;;;;;1.18;89.33;102881.75;5286156;28;20028;-71
2022/03/21 01:58:55;;;;;;;44.45;35.50;;;;;;;1.16;89.04;102885.22;5285739;28;20037;-70
2022/03/21 02:01:26;;;;;;;47.20;36.20;;;;;;;1.15;89.25;102894.69;5286928;28;20460;-70
2022/03/21 02:03:57;;;;;;;44.00;36.30;;;;;;;1.07;90.48;102888.78;5284273;28;20032;-70
2022/03/21 02:06:29;;;;;;;44.30;33.00;;;;;;;1.07;89.16;102886.19;5282639;28;20041;-70
2022/03/21 02:09:03;;;;;;;44.58;34.38;;;;;;;0.91;90.40;102874.31;5283333;28;20523;-70
2022/03/21 02:11:35;;;;;;;46.72;35.65;;;;;;;0.98;90.84;102888.88;5282331;28;20024;-71
2022/03/21 02:14:09;;;;;;;47.63;35.43;;;;;;;1.00;90.61;102894.88;5287954;28;20016;-71
2022/03/21 02:16:41;;;;;;;46.28;35.13;;;;;;;0.95;89.81;102889.78;5286948;28;20024;-71
2022/03/21 02:19:15;;;;;;;43.67;34.72;;;;;;;0.95;90.49;102900.09;5288408;28;20042;-70
2022/03/21 02:21:52;;;;;;;43.67;34.63;;;;;;;0.99;89.72;102892.34;5285546;28;20071;-70
2022/03/21 02:25:08;;;;;;;44.75;35.65;;;;;;;1.12;88.86;102901.63;5290319;28;20371;-69
2022/03/21 02:27:40;;;;;;;45.67;34.28;;;;;;;0.87;89.91;102890.72;5258030;28;20500;-68
2022/03/21 02:30:13;;;;;;;44.17;35.05;;;;;;;0.83;89.08;102894.22;5285984;28;20046;-70
2022/03/21 02:32:47;;;;;;;45.05;34.83;;;;;;;0.88;90.27;102897.63;5288139;28;20111;-70
2022/03/21 02:35:19;;;;;;;43.63;34.65;;;;;;;0.86;89.56;102895.03;5287071;28;20031;-70
2022/03/21 02:37:52;;;;;;;46.15;35.15;;;;;;;0.84;89.73;102901.09;5287424;28;20070;-70
2022/03/21 02:40:24;;;;;;;46.15;36.53;;;;;;;0.86;89.88;102896.75;5288726;28;20028;-70
2022/03/21 02:42:56;;;;;;;43.47;34.87;;;;;;;0.88;89.93;102897.63;5288484;28;20489;-70
2022/03/21 02:45:27;;;;;;;46.33;36.22;;;;;;;0.89;90.05;102904.47;5287633;28;20210;-71
2022/03/21 02:47:59;;;;;;;46.50;35.72;;;;;;;0.85;90.36;102895.06;5287447;28;20033;-70
2022/03/21 02:50:55;;;;;;;46.00;36.60;;;;;;;1.05;89.99;102897.41;5291226;28;20073;-70
2022/03/21 02:53:29;;;;;;;46.03;35.30;;;;;;;0.88;90.09;102895.88;5288294;28;20527;-71
2022/03/21 02:56:00;;;;;;;46.65;35.88;;;;;;;0.86;89.51;102894.19;5287934;28;20028;-69
2022/03/21 02:58:32;;;;;;;46.90;36.22;;;;;;;0.84;89.26;102883.03;5288893;28;20077;-70
2022/03/21 03:01:07;;;;;;;47.80;35.58;;;;;;;0.87;90.74;102891.59;5288145;28;20374;-70
2022/03/21 03:03:39;;;;;;;45.92;36.47;;;;;;;0.72;90.52;102889.19;5286958;28;20036;-69
2022/03/21 03:06:11;;;;;;;47.83;36.05;;;;;;;0.78;90.42;102886.53;5286482;28;20471;-69
2022/03/21 03:08:43;;;;;;;45.20;36.47;;;;;;;0.76;89.98;102892.56;5288107;28;20016;-71
2022/03/21 03:11:14;;;;;;;45.97;35.78;;;;;;;0.75;90.12;102893.44;5288622;28;20077;-70
2022/03/21 03:13:46;;;;;;;46.92;37.25;;;;;;;0.79;90.69;102889.97;5287841;28;20016;-69
2022/03/21 03:16:17;;;;;;;45.33;34.92;;;;;;;0.80;90.41;102900.28;5287775;28;20114;-71
2022/03/21 03:18:49;;;;;;;54.83;40.58;;;;;;;0.80;93.89;102894.25;5286660;28;20024;-70
2022/03/21 03:21:24;;;;;;;50.75;39.65;;;;;;;0.89;94.58;102889.00;5286526;28;20051;-71
2022/03/21 03:23:56;;;;;;;50.33;37.40;;;;;;;0.72;93.32;102895.19;5288189;28;20138;-71
2022/03/21 03:26:28;;;;;;;49.90;38.13;;;;;;;0.71;91.26;102890.88;5286646;28;20401;-69
2022/03/21 03:28:59;;;;;;;53.10;40.60;;;;;;;0.65;93.48;102893.56;5288797;28;20031;-70
2022/03/21 03:31:31;;;;;;;50.05;39.83;;;;;;;0.66;94.14;102892.69;5285640;28;20086;-70
2022/03/21 03:34:03;;;;;;;54.75;39.28;;;;;;;0.68;93.95;102893.53;5287259;28;20023;-70
2022/03/21 03:36:36;;;;;;;54.23;39.47;;;;;;;0.67;93.21;102891.78;5287339;28;20019;-69
2022/03/21 03:39:07;;;;;;;51.07;39.40;;;;;;;0.64;92.17;102904.72;5289459;28;20030;-72
2022/03/21 03:41:38;;;;;;;53.05;39.67;;;;;;;0.61;97.56;102904.78;5287549;28;20017;-70
2022/03/21 03:44:10;;;;;;;53.97;39.80;;;;;;;0.58;96.72;102907.38;5284528;28;20835;-71
2022/03/21 03:46:41;;;;;;;57.70;41.13;;;;;;;0.58;97.06;102911.69;5287888;28;20029;-70
2022/03/21 03:49:13;;;;;;;51.80;40.78;;;;;;;0.57;95.77;102908.25;5285957;28;20063;-70
2022/03/21 03:51:44;;;;;;;51.80;39.92;;;;;;;0.56;95.81;102909.09;5285219;28;20031;-70
2022/03/21 03:54:15;;;;;;;57.88;41.03;;;;;;;0.52;95.51;102904.00;5289101;28;20036;-70
2022/03/21 03:56:46;;;;;;;50.85;38.38;;;;;;;0.50;94.75;102909.19;5282625;28;20059;-71
2022/03/21 03:59:18;;;;;;;52.03;39.80;;;;;;;0.59;95.69;102906.50;5285938;28;20060;-69
2022/03/21 04:01:50;;;;;;;51.97;40.10;;;;;;;0.60;94.46;102915.94;5287157;28;20016;-69
2022/03/21 04:04:21;;;;;;;50.60;39.28;;;;;;;0.57;95.09;102913.41;5286938;28;20501;-70
2022/03/21 04:06:53;;;;;;;51.28;38.80;;;;;;;0.52;94.43;102916.91;5286423;28;20034;-69
2022/03/21 04:09:24;;;;;;;55.22;41.22;;;;;;;0.54;97.68;102917.75;5288641;28;20027;-70
2022/03/21 04:11:55;;;;;;;58.88;41.92;;;;;;;0.56;99.57;102919.41;5287119;28;20114;-71
2022/03/21 04:14:27;;;;;;;51.95;40.03;;;;;;;0.54;98.97;102913.44;5284267;28;20025;-69
2022/03/21 04:16:58;;;;;;;51.75;40.10;;;;;;;0.54;98.10;102917.75;5285404;28;20012;-70
2022/03/21 04:19:29;;;;;;;53.45;40.60;;;;;;;0.50;97.91;102916.91;5277410;28;20098;-72
2022/03/21 04:22:00;;;;;;;52.90;41.35;;;;;;;0.46;97.38;102916.09;5284832;28;20165;-69
2022/03/21 04:24:32;;;;;;;51.80;39.33;;;;;;;0.44;96.88;102916.97;5285313;28;20067;-71
2022/03/21 04:27:03;;;;;;;55.42;41.38;;;;;;;0.46;98.07;102917.81;5284929;28;20024;-70
2022/03/21 04:29:35;;;;;;;54.42;40.95;;;;;;;0.51;97.85;102921.19;5285031;28;20031;-69
2022/03/21 04:32:06;;;;;;;52.05;39.58;;;;;;;0.40;96.32;102912.72;5285278;28;20386;-72
2022/03/21 04:34:37;;;;;;;52.30;40.10;;;;;;;0.33;96.29;102913.63;5284035;28;20495;-69
2022/03/21 04:37:09;;;;;;;51.67;39.42;;;;;;;0.29;97.86;102902.50;5286324;28;20020;-71
2022/03/21 04:39:40;;;;;;;53.15;39.72;;;;;;;0.24;96.99;102899.09;5286955;28;20024;-70
2022/03/21 04:42:12;;;;;;;53.50;39.75;;;;;;;0.33;96.82;102913.63;5284660;28;20108;-69
2022/03/21 04:44:44;;;;;;;55.58;41.00;;;;;;;0.32;96.69;102917.09;5281930;28;20028;-71
2022/03/21 04:47:20;;;;;;;51.25;38.28;;;;;;;0.39;96.68;102921.31;5286186;28;20504;-69
2022/03/21 04:49:51;;;;;;;50.42;38.33;;;;;;;0.27;95.67;102917.13;5284674;28;20035;-70
2022/03/21 04:52:22;;;;;;;51.13;38.97;;;;;;;0.29;95.34;102919.69;5281134;28;20374;-71
2022/03/21 04:54:54;;;;;;;50.03;38.33;;;;;;;0.30;95.43;102918.81;5283732;28;20052;-70
2022/03/21 04:57:25;;;;;;;51.75;38.20;;;;;;;0.27;95.29;102918.84;5283915;28;20032;-70
2022/03/21 04:59:56;;;;;;;54.92;40.67;;;;;;;0.25;95.13;102926.59;5287745;28;20598;-69
2022/03/21 05:02:28;;;;;;;50.90;38.67;;;;;;;0.27;94.98;102924.88;5281955;28;20029;-70
2022/03/21 05:04:59;;;;;;;50.55;38.95;;;;;;;0.24;95.66;102927.47;5285033;28;20051;-70
2022/03/21 05:07:31;;;;;;;53.78;37.67;;;;;;;0.28;95.48;102929.16;5280906;28;20427;-69
2022/03/21 05:10:02;;;;;;;52.33;38.22;;;;;;;0.23;95.72;102931.75;5283908;28;20428;-71
2022/03/21 05:12:34;;;;;;;53.72;39.25;;;;;;;0.23;96.00;102936.91;5284710;28;20046;-71
2022/03/21 05:15:07;;;;;;;56.13;41.50;;;;;;;0.25;100.00;102947.22;5283858;28;20692;-70
2022/03/21 05:17:38;;;;;;;55.88;42.42;;;;;;;0.23;100.00;102939.50;5286473;28;20501;-70
2022/03/21 05:20:15;;;;;;;55.97;41.92;;;;;;;0.20;100.00;102947.25;5285500;28;20125;-71
2022/03/21 05:30:57;;;;;;;52.35;40.58;;;;;;;0.26;100.00;102937.75;5282026;28;20535;-70
2022/03/21 05:31:20;;;;;;;54.70;39.47;;;;;;;0.18;100.00;102933.50;5284546;28;20043;-71
2022/03/21 05:36:41;;;;;;;54.78;39.63;;;;;;;0.10;100.00;102930.13;5283964;28;20103;-72
2022/03/21 05:39:13;;;;;;;52.90;39.22;;;;;;;0.10;100.00;102931.88;5284577;28;20103;-70
2022/03/21 05:41:44;;;;;;;50.15;38.55;;;;;;;0.16;100.00;102944.72;5285035;28;20085;-70
2022/03/21 05:44:15;;;;;;;50.55;38.83;;;;;;;0.08;100.00;102937.03;5280812;28;20371;-69
2022/03/21 05:46:46;;;;;;;51.47;39.72;;;;;;;0.11;100.00;102943.88;5288563;28;20116;-70
2022/03/21 05:49:18;;;;;;;56.60;38.80;;;;;;;0.13;100.00;102945.59;5282347;28;20036;-70
2022/03/21 05:51:49;;;;;;;54.35;40.00;;;;;;;0.14;100.00;102947.28;5286550;28;20449;-71
2022/03/21 05:54:22;;;;;;;52.63;39.47;;;;;;;0.17;100.00;102946.41;5280769;28;20366;-71
2022/03/21 05:56:53;;;;;;;50.72;39.00;;;;;;;0.13;100.00;102948.16;5284906;28;20461;-69
2022/03/21 06:02:16;;;;;;;50.75;39.80;;;;;;;0.16;100.00;102953.31;5284920;28;20029;-71
2022/03/21 06:04:48;;;;;;;49.07;38.13;;;;;;;0.18;100.00;102956.69;5285048;28;20067;-69
2022/03/21 06:07:19;;;;;;;50.13;38.33;;;;;;;0.17;100.00;102955.00;5282291;28;20017;-69
2022/03/21 06:09:50;;;;;;;54.15;39.80;;;;;;;0.17;100.00;102967.03;5282835;28;20027;-70
2022/03/21 06:12:22;;;;;;;52.53;39.65;;;;;;;0.18;100.00;102961.84;5286279;28;20029;-69
2022/03/21 06:14:53;;;;;;;50.67;38.47;;;;;;;0.17;100.00;102952.44;5282962;28;20024;-70
2022/03/21 06:17:25;;;;;;;50.80;37.97;;;;;;;0.17;100.00;102951.56;5286429;28;20059;-70
2022/03/21 06:19:56;;;;;;;48.35;36.88;;;;;;;0.24;100.00;102964.41;5284980;28;20062;-72
2022/03/21 06:22:27;;;;;;;47.70;37.90;;;;;;;0.22;100.00;102950.66;5285243;28;20055;-69
2022/03/21 06:24:59;;;;;;;50.88;38.30;;;;;;;0.33;99.53;102960.88;5286818;28;20122;-71
2022/03/21 06:27:30;;;;;;;49.72;38.70;;;;;;;0.37;100.00;102970.31;5280649;28;20107;-71
2022/03/21 06:30:03;;;;;;;51.30;38.75;;;;;;;0.44;100.00;102965.97;5282732;28;20031;-68
2022/03/21 06:32:36;;;;;;;53.13;38.83;;;;;;;0.50;100.00;102978.81;5284582;28;20501;-68
2022/03/21 06:35:10;;;;;;;53.63;39.50;;;;;;;0.50;100.00;102973.66;5284531;28;20115;-70
2022/03/21 06:37:42;;;;;;;53.85;39.70;;;;;;;0.52;100.00;102979.63;5284664;28;20480;-67
2022/03/21 06:40:13;;;;;;;50.85;39.92;;;;;;;0.53;100.00;102973.63;5284619;28;20806;-68
2022/03/21 06:42:44;;;;;;;57.55;40.28;;;;;;;0.63;100.00;102975.25;5281573;28;20037;-67
2022/03/21 06:45:16;;;;;;;54.25;39.88;;;;;;;0.65;100.00;102975.25;5278993;28;20711;-67
2022/03/21 06:47:47;;;;;;;51.42;38.80;;;;;;;0.70;100.00;102979.47;5284314;28;20511;-67
2022/03/21 06:50:18;;;;;;;57.45;41.60;;;;;;;0.72;100.00;102980.34;5283053;28;20106;-68
2022/03/21 06:52:50;;;;;;;51.50;39.47;;;;;;;0.79;100.00;102980.25;5281946;28;20217;-68
2022/03/21 06:55:21;;;;;;;58.15;39.92;;;;;;;0.78;100.00;102979.41;5265451;28;20065;-68
2022/03/21 06:57:53;;;;;;;56.45;40.10;;;;;;;0.85;100.00;102986.22;5281403;28;20048;-68
2022/03/21 07:00:24;;;;;;;62.47;41.22;;;;;;;0.85;100.00;102990.53;5281941;28;20040;-68
2022/03/21 07:02:56;;;;;;;56.95;42.58;;;;;;;1.04;100.00;102989.47;5284174;28;20354;-68
2022/03/21 07:05:28;;;;;;;57.08;43.42;;;;;;;1.10;100.00;102993.69;5279726;28;20150;-68
2022/03/21 07:08:00;;;;;;;59.60;43.92;;;;;;;1.21;100.00;102992.75;5282963;28;20059;-67
2022/03/21 07:10:32;;;;;;;60.05;42.75;;;;;;;1.29;100.00;102992.66;5286498;28;20523;-68
2022/03/21 07:13:04;;;;;;;56.03;41.00;;;;;;;1.36;100.00;102993.41;5282466;28;20016;-68
2022/03/21 07:15:39;;;;;;;62.33;41.60;;;;;;;1.57;100.00;103000.91;5284355;28;20752;-68
2022/03/21 07:18:11;;;;;;;56.78;42.67;;;;;;;1.70;100.00;102999.00;5287138;28;20478;-67
2022/03/21 07:20:43;;;;;;;60.83;42.63;;;;;;;1.74;100.00;103005.00;5291723;28;20020;-67
2022/03/21 07:23:14;;;;;;;58.80;44.83;;;;;;;1.85;100.00;103003.13;5288064;28;20039;-68
2022/03/21 07:25:47;;;;;;;69.35;45.92;;;;;;;1.99;100.00;103006.38;5285345;28;20078;-68
2022/03/21 07:28:18;;;;;;;60.00;46.07;;;;;;;2.14;100.00;103013.06;5286215;28;20036;-69
2022/03/21 07:30:49;;;;;;;60.25;45.45;;;;;;;2.19;100.00;103006.06;5282330;28;20024;-68
2022/03/21 07:33:21;;;;;;;67.05;45.00;;;;;;;2.30;100.00;103000.75;5289424;28;20031;-68
2022/03/21 07:35:52;;;;;;;71.18;47.40;;;;;;;2.52;100.00;103009.03;5286028;28;20036;-70
2022/03/21 07:38:24;;;;;;;62.05;45.38;;;;;;;2.47;100.00;102993.59;5279716;28;20079;-70
2022/03/21 07:40:56;;;;;;;62.37;44.70;;;;;;;2.60;100.00;102995.06;5278346;28;20024;-68
2022/03/21 07:43:28;;;;;;;61.17;46.25;;;;;;;2.69;100.00;102996.66;5279950;28;20514;-70
2022/03/21 07:48:50;;;;;;;58.83;43.50;;;;;;;3.07;100.00;103000.28;5277212;28;20063;-69
2022/03/21 07:51:21;;;;;;;61.22;43.55;;;;;;;3.25;100.00;103010.28;5283206;28;20669;-71
2022/03/21 07:53:53;;;;;;;54.03;40.85;;;;;;;3.48;100.00;103002.06;5285981;28;20046;-71
2022/03/21 07:56:25;;;;;;;50.53;39.03;;;;;;;3.70;100.00;103007.66;5281989;28;20020;-71
2022/03/21 07:58:59;;;;;;;54.90;39.83;;;;;;;3.98;100.00;103004.44;5280291;28;20056;-68
2022/03/21 08:01:30;;;;;;;50.55;38.28;;;;;;;4.10;100.00;103002.44;5287316;28;20040;-69
2022/03/21 08:04:04;;;;;;;49.30;38.60;;;;;;;4.32;100.00;103002.81;5283434;28;20035;-68
2022/03/21 08:06:35;;;;;;;54.67;37.72;;;;;;;4.68;100.00;102999.31;5285045;28;20020;-68
2022/03/21 08:09:07;;;;;;;47.70;35.08;;;;;;;5.18;100.00;103010.13;5284837;28;20502;-69
2022/03/21 08:11:38;;;;;;;42.17;29.23;;;;;;;5.37;100.00;103000.91;5283758;28;20622;-68
2022/03/21 08:14:09;;;;;;;36.88;27.67;;;;;;;5.91;100.00;103000.19;5282725;28;20024;-69
2022/03/21 08:16:41;;;;;;;35.95;27.23;;;;;;;6.29;100.00;103003.38;5283911;28;20020;-71
2022/03/21 08:19:12;;;;;;;35.38;25.27;;;;;;;6.42;100.00;102999.47;5281616;28;20028;-68
2022/03/21 08:21:43;;;;;;;32.10;25.80;;;;;;;6.42;100.00;103007.28;5276526;28;20040;-70
2022/03/21 08:24:15;;;;;;;34.63;25.88;;;;;;;6.76;100.00;103013.97;5281153;28;20028;-69
2022/03/21 08:26:46;;;;;;;32.20;24.05;;;;;;;6.90;100.00;103005.69;5284769;28;20021;-68
2022/03/21 08:29:17;;;;;;;35.75;24.63;;;;;;;7.30;100.00;103005.09;5282015;28;20071;-69
2022/03/21 08:31:49;;;;;;;28.98;23.55;;;;;;;7.37;100.00;103003.97;5284346;28;20025;-68
2022/03/21 08:34:20;;;;;;;28.83;22.40;;;;;;;7.67;100.00;103002.00;5284805;28;20020;-68
2022/03/21 08:36:51;;;;;;;31.90;22.20;;;;;;;7.80;100.00;103005.84;5282416;28;20084;-68
2022/03/21 08:39:23;;;;;;;28.58;19.42;;;;;;;7.97;99.03;102997.34;5284149;28;20035;-68
2022/03/21 08:41:54;;;;;;;26.88;17.40;;;;;;;8.16;95.77;103000.06;5287479;28;20072;-70
2022/03/21 08:44:25;;;;;;;24.35;18.83;;;;;;;8.40;93.04;103000.84;5281472;28;20036;-70
2022/03/21 08:46:56;;;;;;;24.88;15.70;;;;;;;8.67;84.60;102998.84;5286962;28;20430;-68
2022/03/21 08:49:28;;;;;;;24.15;15.68;;;;;;;8.94;82.79;102999.47;5284319;28;20493;-67
2022/03/21 08:52:01;;;;;;;23.05;14.15;;;;;;;9.24;80.27;102993.78;5284281;28;20500;-69
2022/03/21 08:54:32;;;;;;;22.13;15.63;;;;;;;9.45;78.76;102997.19;5278547;28;20024;-69
2022/03/21 08:57:04;;;;;;;20.88;14.93;;;;;;;9.61;79.76;102992.94;5285890;28;20040;-68
2022/03/21 08:59:36;;;;;;;21.35;14.13;;;;;;;9.82;76.92;102993.72;5281629;28;20379;-68
2022/03/21 09:02:10;;;;;;;19.92;15.20;;;;;;;9.83;77.19;102995.41;5284673;28;20027;-68
2022/03/21 09:04:41;;;;;;;20.52;15.43;;;;;;;9.90;75.75;102991.59;5283004;28;20055;-68
2022/03/21 09:07:13;;;;;;;17.88;14.10;;;;;;;9.95;75.51;102997.44;5282571;28;20012;-68
2022/03/21 09:09:44;;;;;;;24.38;16.02;;;;;;;10.18;73.71;102993.72;5280569;28;20215;-69
2022/03/21 09:12:16;;;;;;;21.52;15.68;;;;;;;10.38;71.70;103005.91;5282149;28;20028;-69
2022/03/21 09:14:47;;;;;;;21.00;15.00;;;;;;;10.45;72.42;103002.03;5285637;28;20032;-68
2022/03/21 09:17:18;;;;;;;21.02;14.98;;;;;;;10.70;72.03;103001.66;5277336;28;20409;-68
2022/03/21 09:19:49;;;;;;;22.30;15.02;;;;;;;10.82;71.72;103005.41;5282430;28;20115;-69
2022/03/21 09:22:21;;;;;;;23.67;15.18;;;;;;;10.94;69.53;102993.44;5282224;28;20245;-69
2022/03/21 09:24:52;;;;;;;22.35;15.48;;;;;;;11.03;69.09;102997.38;5280128;28;20050;-69
2022/03/21 09:27:24;;;;;;;27.50;16.25;;;;;;;11.31;69.26;102994.97;5282343;28;20024;-69
2022/03/21 09:29:56;;;;;;;20.55;15.50;;;;;;;11.39;68.73;102997.19;5281894;28;20032;-69
2022/03/21 09:32:27;;;;;;;20.30;15.25;;;;;;;11.36;69.20;102979.81;5284981;28;20246;-69
2022/03/21 09:34:59;;;;;;;21.42;14.98;;;;;;;11.62;67.86;102982.81;5276265;28;20028;-69
2022/03/21 09:37:32;;;;;;;18.83;14.57;;;;;;;11.66;67.36;102979.91;5285547;28;20364;-69
2022/03/21 09:40:04;;;;;;;21.85;14.02;;;;;;;11.81;64.77;102985.25;5277984;28;20385;-69
2022/03/21 09:42:36;;;;;;;20.05;14.60;;;;;;;11.75;66.95;102975.13;5281668;28;20030;-69
2022/03/21 09:45:08;;;;;;;18.52;12.38;;;;;;;12.04;63.99;102978.75;5284720;28;20393;-69
2022/03/21 09:50:36;;;;;;;18.25;13.50;;;;;;;12.36;64.22;102972.47;5284894;28;20147;-69
2022/03/21 09:53:11;;;;;;;17.30;13.30;;;;;;;12.54;60.78;102972.31;5280241;28;20028;-70
2022/03/21 09:55:44;;;;;;;22.55;13.13;;;;;;;12.69;59.56;102974.06;5279158;28;20028;-69
2022/03/21 09:58:15;;;;;;;;;;;;;;;13.05;57.51;102970.97;5282012;28;20059;-69
2022/03/21 10:00:49;;;;;;;21.67;14.03;;;;;;;12.85;58.31;102974.00;5281280;28;19912;-69
2022/03/21 10:03:20;;;;;;;21.13;12.98;;;;;;;12.96;59.04;102974.19;5278928;28;20028;-69
2022/03/21 10:05:51;;;;;;;18.75;13.00;;;;;;;13.00;57.37;102970.41;5283710;28;20663;-70
2022/03/21 10:08:26;;;;;;;23.52;13.95;;;;;;;13.28;57.96;102966.09;5286309;28;20381;-69
2022/03/21 10:10:59;;;;;;;19.33;13.48;;;;;;;13.44;57.97;102969.47;5283421;28;20048;-70
2022/03/21 10:13:36;;;;;;;18.58;12.50;;;;;;;13.57;56.80;102959.00;5282203;28;20444;-70
2022/03/21 10:16:18;;;;;;;19.05;12.82;;;;;;;13.78;56.58;102957.63;5286011;28;20027;-71
2022/03/21 10:18:52;;;;;;;16.33;12.52;;;;;;;13.78;55.11;102956.78;5285087;28;20031;-70
2022/03/21 10:21:25;;;;;;;20.23;12.68;;;;;;;13.92;55.22;102958.53;5272813;28;20489;-70
2022/03/21 10:24:02;;;;;;;21.63;14.10;;;;;;;14.10;55.98;102949.41;5277929;28;20085;-69
2022/03/21 10:26:39;;;;;;;21.13;14.20;;;;;;;14.21;54.79;102961.88;5284158;28;20478;-70
2022/03/21 10:29:11;;;;;;;18.50;13.57;;;;;;;14.29;53.85;102949.88;5285971;28;20507;-70
2022/03/21 10:31:48;;;;;;;20.77;12.93;;;;;;;14.40;54.14;102950.94;5282896;28;20031;-70
2022/03/21 10:34:29;;;;;;;17.85;13.48;;;;;;;14.59;55.16;102951.41;5283046;28;20119;-70
2022/03/21 10:37:09;;;;;;;18.05;12.75;;;;;;;14.64;54.22;102956.38;5289889;28;20067;-71
2022/03/21 10:39:50;;;;;;;23.75;14.10;;;;;;;14.82;53.15;102952.47;5284245;28;20474;-70
2022/03/21 10:42:22;;;;;;;19.90;13.43;;;;;;;14.92;53.26;102957.94;5282508;28;20071;-70
2022/03/21 10:44:54;;;;;;;25.00;14.77;;;;;;;14.94;52.55;102951.63;5283521;28;20047;-70
2022/03/21 10:47:25;;;;;;;21.17;14.70;;;;;;;15.11;52.70;102958.34;5287338;28;20034;-71
2022/03/21 10:50:02;;;;;;;20.38;13.35;;;;;;;15.25;53.72;102955.56;5286011;28;20034;-70
2022/03/21 10:52:36;;;;;;;19.70;14.52;;;;;;;15.15;53.08;102951.03;5288992;28;20020;-70
2022/03/21 10:55:20;;;;;;;19.30;14.95;;;;;;;15.51;53.33;102951.06;5284389;28;20023;-70
2022/03/21 10:57:54;;;;;;;19.48;14.45;;;;;;;15.61;52.17;102940.69;5287466;28;20039;-71
2022/03/21 11:00:27;;;;;;;19.25;14.45;;;;;;;15.57;53.21;102940.06;5285645;28;20040;-70
2022/03/21 11:03:05;;;;;;;18.93;14.43;;;;;;;15.62;50.95;102934.44;5288746;28;20028;-71
2022/03/21 11:05:38;;;;;;;22.05;14.95;;;;;;;15.71;51.19;102939.06;5286033;28;20039;-71
2022/03/21 11:08:12;;;;;;;19.15;14.63;;;;;;;15.64;51.80;102929.03;5287948;28;20064;-71
2022/03/21 11:10:45;;;;;;;21.65;14.45;;;;;;;15.78;52.12;102932.38;5286889;28;20024;-71
2022/03/21 11:13:19;;;;;;;22.77;14.27;;;;;;;15.84;51.31;102939.03;5287882;28;20032;-71
2022/03/21 11:15:51;;;;;;;23.73;16.25;;;;;;;15.97;51.61;102931.84;5287599;28;20334;-71
2022/03/21 11:18:23;;;;;;;19.25;15.05;;;;;;;16.09;51.23;102930.09;5287400;28;20024;-71
2022/03/21 11:20:59;;;;;;;22.05;14.50;;;;;;;16.12;51.63;102935.16;5284589;28;20025;-70
2022/03/21 11:23:30;;;;;;;20.48;15.15;;;;;;;16.10;51.16;102931.81;5287751;28;20040;-70
2022/03/21 11:26:19;;;;;;;23.67;15.25;;;;;;;16.27;50.12;102925.22;5287817;28;20020;-70
2022/03/21 11:29:12;;;;;;;19.35;14.35;;;;;;;16.40;51.61;102919.84;5286062;28;20104;-70
2022/03/21 11:32:13;;;;;;;20.13;14.53;;;;;;;16.83;50.85;102925.34;5289738;28;20096;-70
2022/03/21 11:35:10;;;;;;;21.02;14.05;;;;;;;17.05;50.93;102918.31;5287647;28;20676;-70
2022/03/21 11:37:42;;;;;;;18.73;14.82;;;;;;;16.72;49.64;102912.91;5291149;28;20024;-70
2022/03/21 11:40:26;;;;;;;21.90;14.80;;;;;;;17.01;50.13;102913.28;5285139;28;20024;-70
2022/03/21 11:43:21;;;;;;;19.42;14.38;;;;;;;17.18;50.98;102917.22;5287088;28;20416;-71
2022/03/21 11:45:55;;;;;;;19.17;13.45;;;;;;;17.15;49.37;102909.53;5273903;28;20082;-71
2022/03/21 11:48:26;;;;;;;19.45;12.63;;;;;;;17.25;48.98;102913.13;5286040;28;20097;-70
2022/03/21 11:50:57;;;;;;;21.30;13.03;;;;;;;17.42;48.32;102900.31;5286468;28;20020;-70
2022/03/21 11:53:32;;;;;;;16.93;12.53;;;;;;;17.62;47.94;102906.66;5285662;28;20139;-70
2022/03/21 11:56:03;;;;;;;19.73;14.07;;;;;;;17.66;47.97;102911.59;5278788;28;20394;-70
2022/03/21 11:58:40;;;;;;;20.95;13.73;;;;;;;17.55;48.76;102911.63;5280992;28;20127;-70
2022/03/21 12:01:13;;;;;;;18.63;13.50;;;;;;;17.40;48.01;102902.28;5274473;28;20088;-71